Anderson Regional Airport
KAND : now visible

Airfield :











YOU CAN JOIN US ON...

 
LOGIN :

Register | Disclaimer

   EN    FR    IT 

 









Legend :    VFR   Marginal VFR   IFR   Intensive IFR   Very Intensive IFR
Visi :
Ceiling :
>= 8 km
>= 3000ft
5 to 8 km
1000 to 3000 ft
1500m to 5 km
500 to 1000 ft
800 to 1500m
200 to 500 ft
< 800m
< 200 ft
Symbols :   Thunderstorms  Fog  Heavy snow  Heavy precipitations  Wind > 20 kt






- Airport Elevation : 782 ft


KAND - Anderson Regional

CURRENT METAR :
  • 151056Z AUTO 00000KT 10SM CLR 23/21 A3008 RMK AO2 SLP173 T02280206

EXPIRED METARs :
  • 150956Z AUTO 00000KT 10SM CLR 22/21 A3006 RMK AO2 SLP167 T02170206
  • 150856Z AUTO 11003KT 10SM CLR 22/21 A3004 RMK AO2 SLP162 T02170206 53002

TAF KAND
Valid from the 15 at 06:00 until the 16 at 06:00 UTC


150530Z 1506/1606 00000KT P6SM FEW060
FM151400 08004KT P6SM FEW050
FM151700 14005KT P6SM SCT060 BKN250
FM160000 11004KT P6SM SCT060 BKN250
KZTL FIR / North America



MET'MAP, your aeronautical weather chart ! - Copyright ORBIFLY December 2007 - Disclaimer

ORBIFLY MET'MAP TEAM :

Programming & Development : Alexandra Zaïnal
Concept & original design : Baudouin d'Aumeries
Assistance for programming : Marc-Olivier Méhu
Technical & hardware support : Manuel Goepfert

Contact : metmap@orbifly.com




SOURCES & CREDITS :

   NOAA       Earth
Advisory